sensor_id;sensor_type;location;lat;lon;timestamp;temperature;humidity
58447;DHT22;44240;51.840;7.258;2023-02-05T00:01:06;7.40;75.50
58447;DHT22;44240;51.840;7.258;2023-02-05T00:03:32;7.40;75.40
58447;DHT22;44240;51.840;7.258;2023-02-05T00:06:00;7.40;75.50
58447;DHT22;44240;51.840;7.258;2023-02-05T00:08:25;7.40;75.40
58447;DHT22;44240;51.840;7.258;2023-02-05T00:10:52;7.40;75.40
58447;DHT22;44240;51.840;7.258;2023-02-05T00:13:18;7.50;75.40
58447;DHT22;44240;51.840;7.258;2023-02-05T00:15:43;7.50;75.30
58447;DHT22;44240;51.840;7.258;2023-02-05T00:18:09;7.50;75.40
58447;DHT22;44240;51.840;7.258;2023-02-05T00:20:34;7.50;75.40
58447;DHT22;44240;51.840;7.258;2023-02-05T00:23:01;7.50;75.40
58447;DHT22;44240;51.840;7.258;2023-02-05T00:25:27;7.50;75.30
58447;DHT22;44240;51.840;7.258;2023-02-05T00:27:53;7.50;75.30
58447;DHT22;44240;51.840;7.258;2023-02-05T00:30:19;7.60;75.30
58447;DHT22;44240;51.840;7.258;2023-02-05T00:32:44;7.50;75.10
58447;DHT22;44240;51.840;7.258;2023-02-05T00:35:10;7.60;75.10
58447;DHT22;44240;51.840;7.258;2023-02-05T00:37:35;7.60;75.20
58447;DHT22;44240;51.840;7.258;2023-02-05T00:40:01;7.60;75.30
58447;DHT22;44240;51.840;7.258;2023-02-05T00:42:27;7.60;75.30
58447;DHT22;44240;51.840;7.258;2023-02-05T00:44:52;7.60;75.20
58447;DHT22;44240;51.840;7.258;2023-02-05T00:47:18;7.60;75.20
58447;DHT22;44240;51.840;7.258;2023-02-05T00:49:43;7.60;75.20
58447;DHT22;44240;51.840;7.258;2023-02-05T00:52:09;7.60;75.10
58447;DHT22;44240;51.840;7.258;2023-02-05T00:54:34;7.60;75.10
58447;DHT22;44240;51.840;7.258;2023-02-05T00:57:00;7.60;75.10
58447;DHT22;44240;51.840;7.258;2023-02-05T00:59:26;7.60;75.10
58447;DHT22;44240;51.840;7.258;2023-02-05T01:01:51;7.60;75.10
58447;DHT22;44240;51.840;7.258;2023-02-05T01:04:17;7.60;75.10
58447;DHT22;44240;51.840;7.258;2023-02-05T01:06:42;7.60;75.00
58447;DHT22;44240;51.840;7.258;2023-02-05T01:09:08;7.50;75.00
58447;DHT22;44240;51.840;7.258;2023-02-05T01:11:33;7.60;75.00
58447;DHT22;44240;51.840;7.258;2023-02-05T01:13:59;7.60;75.00
58447;DHT22;44240;51.840;7.258;2023-02-05T01:16:24;7.60;74.90
58447;DHT22;44240;51.840;7.258;2023-02-05T01:18:50;7.60;74.90
58447;DHT22;44240;51.840;7.258;2023-02-05T01:21:17;7.60;74.80
58447;DHT22;44240;51.840;7.258;2023-02-05T01:23:42;7.60;74.60
58447;DHT22;44240;51.840;7.258;2023-02-05T01:26:08;7.60;74.50
58447;DHT22;44240;51.840;7.258;2023-02-05T01:28:33;7.70;74.50
58447;DHT22;44240;51.840;7.258;2023-02-05T01:30:59;7.70;74.40
58447;DHT22;44240;51.840;7.258;2023-02-05T01:33:24;7.70;74.40
58447;DHT22;44240;51.840;7.258;2023-02-05T01:35:50;7.70;74.40
58447;DHT22;44240;51.840;7.258;2023-02-05T01:38:15;7.70;74.40
58447;DHT22;44240;51.840;7.258;2023-02-05T01:40:41;7.70;74.30
58447;DHT22;44240;51.840;7.258;2023-02-05T01:43:14;7.70;74.40
58447;DHT22;44240;51.840;7.258;2023-02-05T01:48:17;7.70;74.30
58447;DHT22;44240;51.840;7.258;2023-02-05T01:50:48;7.70;74.40
58447;DHT22;44240;51.840;7.258;2023-02-05T01:53:22;7.70;74.40
58447;DHT22;44240;51.840;7.258;2023-02-05T01:56:01;7.80;74.50
58447;DHT22;44240;51.840;7.258;2023-02-05T01:58:31;7.70;74.60
58447;DHT22;44240;51.840;7.258;2023-02-05T02:00:58;7.70;74.60
58447;DHT22;44240;51.840;7.258;2023-02-05T02:03:25;7.70;74.60
58447;DHT22;44240;51.840;7.258;2023-02-05T02:05:52;7.70;74.60
58447;DHT22;44240;51.840;7.258;2023-02-05T02:08:18;7.70;74.40
58447;DHT22;44240;51.840;7.258;2023-02-05T02:10:45;7.70;74.30
58447;DHT22;44240;51.840;7.258;2023-02-05T02:13:12;7.70;74.10
58447;DHT22;44240;51.840;7.258;2023-02-05T02:15:39;7.70;74.10
58447;DHT22;44240;51.840;7.258;2023-02-05T02:18:06;7.70;74.30
58447;DHT22;44240;51.840;7.258;2023-02-05T02:21:01;7.70;74.40
58447;DHT22;44240;51.840;7.258;2023-02-05T02:23:45;7.60;74.30
58447;DHT22;44240;51.840;7.258;2023-02-05T02:28:49;7.70;74.70
58447;DHT22;44240;51.840;7.258;2023-02-05T02:31:40;7.70;74.80
58447;DHT22;44240;51.840;7.258;2023-02-05T02:34:17;7.70;74.70
58447;DHT22;44240;51.840;7.258;2023-02-05T02:37:17;7.60;74.80
58447;DHT22;44240;51.840;7.258;2023-02-05T02:39:59;7.70;74.90
58447;DHT22;44240;51.840;7.258;2023-02-05T02:42:33;7.70;75.00
58447;DHT22;44240;51.840;7.258;2023-02-05T02:45:02;7.60;75.00
58447;DHT22;44240;51.840;7.258;2023-02-05T02:47:34;7.60;75.00
58447;DHT22;44240;51.840;7.258;2023-02-05T02:50:05;7.70;75.10
58447;DHT22;44240;51.840;7.258;2023-02-05T02:52:34;7.60;75.00
58447;DHT22;44240;51.840;7.258;2023-02-05T02:55:04;7.70;75.10
58447;DHT22;44240;51.840;7.258;2023-02-05T02:57:34;7.70;75.10
58447;DHT22;44240;51.840;7.258;2023-02-05T03:00:07;7.70;75.10
58447;DHT22;44240;51.840;7.258;2023-02-05T03:02:35;7.60;75.20
58447;DHT22;44240;51.840;7.258;2023-02-05T03:05:04;7.60;75.30
58447;DHT22;44240;51.840;7.258;2023-02-05T03:07:45;7.60;75.60
58447;DHT22;44240;51.840;7.258;2023-02-05T03:10:19;7.60;75.60
58447;DHT22;44240;51.840;7.258;2023-02-05T03:12:47;7.60;75.80
58447;DHT22;44240;51.840;7.258;2023-02-05T03:15:13;7.50;75.80
58447;DHT22;44240;51.840;7.258;2023-02-05T03:17:40;7.50;75.80
58447;DHT22;44240;51.840;7.258;2023-02-05T03:20:28;7.50;75.80
58447;DHT22;44240;51.840;7.258;2023-02-05T03:22:55;7.60;75.80
58447;DHT22;44240;51.840;7.258;2023-02-05T03:25:21;7.50;75.90
58447;DHT22;44240;51.840;7.258;2023-02-05T03:27:51;7.50;75.90
58447;DHT22;44240;51.840;7.258;2023-02-05T03:30:17;7.50;76.00
58447;DHT22;44240;51.840;7.258;2023-02-05T03:40:50;7.50;76.30
58447;DHT22;44240;51.840;7.258;2023-02-05T03:53:37;7.50;76.40
58447;DHT22;44240;51.840;7.258;2023-02-05T03:56:07;7.50;76.60
58447;DHT22;44240;51.840;7.258;2023-02-05T03:58:38;7.50;76.70
58447;DHT22;44240;51.840;7.258;2023-02-05T04:01:05;7.50;76.80
58447;DHT22;44240;51.840;7.258;2023-02-05T04:03:32;7.50;76.80
58447;DHT22;44240;51.840;7.258;2023-02-05T04:05:57;7.50;76.80
58447;DHT22;44240;51.840;7.258;2023-02-05T04:08:23;7.50;76.90
58447;DHT22;44240;51.840;7.258;2023-02-05T04:10:48;7.50;77.10
58447;DHT22;44240;51.840;7.258;2023-02-05T04:13:14;7.50;77.20
58447;DHT22;44240;51.840;7.258;2023-02-05T04:15:39;7.50;77.30
58447;DHT22;44240;51.840;7.258;2023-02-05T04:18:05;7.60;77.40
58447;DHT22;44240;51.840;7.258;2023-02-05T04:20:31;7.60;77.50
58447;DHT22;44240;51.840;7.258;2023-02-05T04:22:57;7.60;77.70
58447;DHT22;44240;51.840;7.258;2023-02-05T04:25:22;7.60;77.70
58447;DHT22;44240;51.840;7.258;2023-02-05T04:27:48;7.60;77.80
58447;DHT22;44240;51.840;7.258;2023-02-05T04:30:13;7.60;77.80
58447;DHT22;44240;51.840;7.258;2023-02-05T04:32:39;7.60;78.00
58447;DHT22;44240;51.840;7.258;2023-02-05T04:35:04;7.70;78.20
58447;DHT22;44240;51.840;7.258;2023-02-05T04:37:30;7.70;78.20
58447;DHT22;44240;51.840;7.258;2023-02-05T04:39:55;7.60;78.30
58447;DHT22;44240;51.840;7.258;2023-02-05T04:42:21;7.60;78.40
58447;DHT22;44240;51.840;7.258;2023-02-05T04:44:47;7.60;78.60
58447;DHT22;44240;51.840;7.258;2023-02-05T04:47:12;7.60;78.70
58447;DHT22;44240;51.840;7.258;2023-02-05T04:49:38;7.70;79.20
58447;DHT22;44240;51.840;7.258;2023-02-05T04:52:05;7.70;78.80
58447;DHT22;44240;51.840;7.258;2023-02-05T04:54:31;7.70;78.80
58447;DHT22;44240;51.840;7.258;2023-02-05T04:56:57;7.70;78.90
58447;DHT22;44240;51.840;7.258;2023-02-05T04:59:22;7.70;79.10
58447;DHT22;44240;51.840;7.258;2023-02-05T05:01:48;7.70;79.30
58447;DHT22;44240;51.840;7.258;2023-02-05T05:04:13;7.70;79.40
58447;DHT22;44240;51.840;7.258;2023-02-05T05:06:39;7.70;79.60
58447;DHT22;44240;51.840;7.258;2023-02-05T05:09:04;7.70;79.60
58447;DHT22;44240;51.840;7.258;2023-02-05T05:11:30;7.80;79.70
58447;DHT22;44240;51.840;7.258;2023-02-05T05:13:56;7.80;79.70
58447;DHT22;44240;51.840;7.258;2023-02-05T05:16:22;7.80;79.70
58447;DHT22;44240;51.840;7.258;2023-02-05T05:18:50;7.90;79.80
58447;DHT22;44240;51.840;7.258;2023-02-05T05:21:16;7.90;79.80
58447;DHT22;44240;51.840;7.258;2023-02-05T05:23:41;7.80;80.00
58447;DHT22;44240;51.840;7.258;2023-02-05T05:26:10;7.80;80.10
58447;DHT22;44240;51.840;7.258;2023-02-05T05:28:36;7.80;80.50
58447;DHT22;44240;51.840;7.258;2023-02-05T05:31:11;7.80;80.60
58447;DHT22;44240;51.840;7.258;2023-02-05T05:33:37;7.80;80.80
58447;DHT22;44240;51.840;7.258;2023-02-05T05:36:03;7.80;80.80
58447;DHT22;44240;51.840;7.258;2023-02-05T05:38:29;7.80;80.80
58447;DHT22;44240;51.840;7.258;2023-02-05T05:40:55;7.80;80.80
58447;DHT22;44240;51.840;7.258;2023-02-05T05:43:39;7.90;80.80
58447;DHT22;44240;51.840;7.258;2023-02-05T05:46:21;7.90;80.90
58447;DHT22;44240;51.840;7.258;2023-02-05T05:48:53;7.90;80.90
58447;DHT22;44240;51.840;7.258;2023-02-05T05:51:20;8.00;80.90
58447;DHT22;44240;51.840;7.258;2023-02-05T05:53:46;7.90;80.80
58447;DHT22;44240;51.840;7.258;2023-02-05T05:56:12;8.00;80.90
58447;DHT22;44240;51.840;7.258;2023-02-05T05:58:38;8.00;80.90
58447;DHT22;44240;51.840;7.258;2023-02-05T06:01:04;8.00;81.00
58447;DHT22;44240;51.840;7.258;2023-02-05T06:03:30;8.00;81.00
58447;DHT22;44240;51.840;7.258;2023-02-05T06:05:55;8.00;81.10
58447;DHT22;44240;51.840;7.258;2023-02-05T06:08:21;8.00;81.20
58447;DHT22;44240;51.840;7.258;2023-02-05T06:10:46;8.00;81.20
58447;DHT22;44240;51.840;7.258;2023-02-05T06:13:12;8.00;81.20
58447;DHT22;44240;51.840;7.258;2023-02-05T06:15:38;8.00;81.20
58447;DHT22;44240;51.840;7.258;2023-02-05T06:18:03;8.00;81.40
58447;DHT22;44240;51.840;7.258;2023-02-05T06:20:29;8.00;81.50
58447;DHT22;44240;51.840;7.258;2023-02-05T06:22:54;8.00;81.50
58447;DHT22;44240;51.840;7.258;2023-02-05T06:25:20;8.10;81.60
58447;DHT22;44240;51.840;7.258;2023-02-05T06:27:45;8.00;81.90
58447;DHT22;44240;51.840;7.258;2023-02-05T06:30:11;8.00;82.20
58447;DHT22;44240;51.840;7.258;2023-02-05T06:32:37;8.00;82.30
58447;DHT22;44240;51.840;7.258;2023-02-05T06:35:03;8.00;82.30
58447;DHT22;44240;51.840;7.258;2023-02-05T06:37:28;8.10;82.40
58447;DHT22;44240;51.840;7.258;2023-02-05T06:39:55;8.10;82.40
58447;DHT22;44240;51.840;7.258;2023-02-05T06:42:20;8.20;82.40
58447;DHT22;44240;51.840;7.258;2023-02-05T06:44:46;8.20;82.40
58447;DHT22;44240;51.840;7.258;2023-02-05T06:47:11;8.20;82.40
58447;DHT22;44240;51.840;7.258;2023-02-05T06:49:37;8.20;82.40
58447;DHT22;44240;51.840;7.258;2023-02-05T06:52:03;8.30;82.50
58447;DHT22;44240;51.840;7.258;2023-02-05T06:54:29;8.30;82.90
58447;DHT22;44240;51.840;7.258;2023-02-05T06:56:55;8.20;83.10
58447;DHT22;44240;51.840;7.258;2023-02-05T06:59:20;8.20;83.40
58447;DHT22;44240;51.840;7.258;2023-02-05T07:01:46;8.20;83.60
58447;DHT22;44240;51.840;7.258;2023-02-05T07:04:11;8.20;83.70
58447;DHT22;44240;51.840;7.258;2023-02-05T07:06:37;8.20;83.70
58447;DHT22;44240;51.840;7.258;2023-02-05T07:09:03;8.30;83.70
58447;DHT22;44240;51.840;7.258;2023-02-05T07:11:28;8.30;83.70
58447;DHT22;44240;51.840;7.258;2023-02-05T07:13:54;8.30;83.70
58447;DHT22;44240;51.840;7.258;2023-02-05T07:16:19;8.40;83.90
58447;DHT22;44240;51.840;7.258;2023-02-05T07:18:45;8.40;83.80
58447;DHT22;44240;51.840;7.258;2023-02-05T07:21:13;8.40;84.10
58447;DHT22;44240;51.840;7.258;2023-02-05T07:23:40;8.40;84.30
58447;DHT22;44240;51.840;7.258;2023-02-05T07:26:08;8.50;84.30
58447;DHT22;44240;51.840;7.258;2023-02-05T07:28:34;8.50;84.30
58447;DHT22;44240;51.840;7.258;2023-02-05T07:31:03;8.50;84.20
58447;DHT22;44240;51.840;7.258;2023-02-05T07:33:30;8.50;84.20
58447;DHT22;44240;51.840;7.258;2023-02-05T07:35:56;8.50;84.10
58447;DHT22;44240;51.840;7.258;2023-02-05T07:38:22;8.60;84.10
58447;DHT22;44240;51.840;7.258;2023-02-05T07:40:49;8.60;84.00
58447;DHT22;44240;51.840;7.258;2023-02-05T07:43:15;8.60;84.00
58447;DHT22;44240;51.840;7.258;2023-02-05T07:45:40;8.60;83.90
58447;DHT22;44240;51.840;7.258;2023-02-05T07:48:06;8.60;83.90
58447;DHT22;44240;51.840;7.258;2023-02-05T07:50:32;8.60;83.90
58447;DHT22;44240;51.840;7.258;2023-02-05T07:52:57;8.70;83.90
58447;DHT22;44240;51.840;7.258;2023-02-05T07:55:23;8.70;83.80
58447;DHT22;44240;51.840;7.258;2023-02-05T07:57:48;8.70;83.90
58447;DHT22;44240;51.840;7.258;2023-02-05T08:00:14;8.70;83.90
58447;DHT22;44240;51.840;7.258;2023-02-05T08:02:39;8.70;83.60
58447;DHT22;44240;51.840;7.258;2023-02-05T08:05:05;8.70;83.70
58447;DHT22;44240;51.840;7.258;2023-02-05T08:07:31;8.70;83.80
58447;DHT22;44240;51.840;7.258;2023-02-05T08:09:56;8.70;83.80
58447;DHT22;44240;51.840;7.258;2023-02-05T08:12:22;8.70;83.70
58447;DHT22;44240;51.840;7.258;2023-02-05T08:14:48;8.70;83.70
58447;DHT22;44240;51.840;7.258;2023-02-05T08:17:13;8.70;83.70
58447;DHT22;44240;51.840;7.258;2023-02-05T08:19:39;8.70;83.50
58447;DHT22;44240;51.840;7.258;2023-02-05T08:22:06;8.70;83.60
58447;DHT22;44240;51.840;7.258;2023-02-05T08:24:31;8.70;83.40
58447;DHT22;44240;51.840;7.258;2023-02-05T08:26:57;8.70;83.60
58447;DHT22;44240;51.840;7.258;2023-02-05T08:29:23;8.70;83.50
58447;DHT22;44240;51.840;7.258;2023-02-05T08:31:48;8.60;83.30
58447;DHT22;44240;51.840;7.258;2023-02-05T08:34:14;8.60;82.70
58447;DHT22;44240;51.840;7.258;2023-02-05T08:36:40;8.50;82.50
58447;DHT22;44240;51.840;7.258;2023-02-05T08:39:06;8.40;82.30
58447;DHT22;44240;51.840;7.258;2023-02-05T08:41:31;8.40;82.50
58447;DHT22;44240;51.840;7.258;2023-02-05T08:43:57;8.30;82.40
58447;DHT22;44240;51.840;7.258;2023-02-05T08:46:23;8.30;82.10
58447;DHT22;44240;51.840;7.258;2023-02-05T08:48:50;8.40;81.90
58447;DHT22;44240;51.840;7.258;2023-02-05T08:51:17;8.40;81.80
58447;DHT22;44240;51.840;7.258;2023-02-05T08:53:44;8.40;81.80
58447;DHT22;44240;51.840;7.258;2023-02-05T08:56:10;8.30;81.30
58447;DHT22;44240;51.840;7.258;2023-02-05T08:58:37;8.30;81.40
58447;DHT22;44240;51.840;7.258;2023-02-05T09:01:14;8.30;81.50
58447;DHT22;44240;51.840;7.258;2023-02-05T09:03:40;8.30;81.30
58447;DHT22;44240;51.840;7.258;2023-02-05T09:06:11;8.20;81.60
58447;DHT22;44240;51.840;7.258;2023-02-05T09:08:38;8.20;81.70
58447;DHT22;44240;51.840;7.258;2023-02-05T09:11:04;8.20;81.60
58447;DHT22;44240;51.840;7.258;2023-02-05T09:13:30;8.20;81.60
58447;DHT22;44240;51.840;7.258;2023-02-05T09:15:56;8.20;81.80
58447;DHT22;44240;51.840;7.258;2023-02-05T09:18:21;8.20;81.60
58447;DHT22;44240;51.840;7.258;2023-02-05T09:20:48;8.20;81.60
58447;DHT22;44240;51.840;7.258;2023-02-05T09:23:16;8.20;81.90
58447;DHT22;44240;51.840;7.258;2023-02-05T09:25:42;8.20;82.10
58447;DHT22;44240;51.840;7.258;2023-02-05T09:28:10;8.20;82.00
58447;DHT22;44240;51.840;7.258;2023-02-05T09:30:40;8.10;82.20
58447;DHT22;44240;51.840;7.258;2023-02-05T09:33:05;8.10;82.50
58447;DHT22;44240;51.840;7.258;2023-02-05T09:35:32;8.10;82.60
58447;DHT22;44240;51.840;7.258;2023-02-05T09:37:58;8.20;82.50
58447;DHT22;44240;51.840;7.258;2023-02-05T09:40:34;8.10;82.50
58447;DHT22;44240;51.840;7.258;2023-02-05T09:43:59;8.10;82.60
58447;DHT22;44240;51.840;7.258;2023-02-05T09:46:26;8.10;82.60
58447;DHT22;44240;51.840;7.258;2023-02-05T09:49:07;8.10;82.70
58447;DHT22;44240;51.840;7.258;2023-02-05T09:51:41;8.10;83.90
58447;DHT22;44240;51.840;7.258;2023-02-05T09:54:32;8.20;82.90
58447;DHT22;44240;51.840;7.258;2023-02-05T09:57:03;8.20;82.90
58447;DHT22;44240;51.840;7.258;2023-02-05T09:59:30;8.20;82.80
58447;DHT22;44240;51.840;7.258;2023-02-05T10:04:45;8.20;83.00
58447;DHT22;44240;51.840;7.258;2023-02-05T10:07:25;8.10;84.00
58447;DHT22;44240;51.840;7.258;2023-02-05T10:10:15;8.10;83.20
58447;DHT22;44240;51.840;7.258;2023-02-05T10:12:50;8.20;83.20
58447;DHT22;44240;51.840;7.258;2023-02-05T10:18:16;8.20;83.20
58447;DHT22;44240;51.840;7.258;2023-02-05T10:21:03;8.20;83.30
58447;DHT22;44240;51.840;7.258;2023-02-05T10:24:02;8.20;83.50
58447;DHT22;44240;51.840;7.258;2023-02-05T10:37:50;8.20;83.40
58447;DHT22;44240;51.840;7.258;2023-02-05T10:40:20;8.20;83.60
58447;DHT22;44240;51.840;7.258;2023-02-05T10:43:20;8.20;83.70
58447;DHT22;44240;51.840;7.258;2023-02-05T10:45:48;8.20;83.60
58447;DHT22;44240;51.840;7.258;2023-02-05T10:51:10;8.20;83.60
58447;DHT22;44240;51.840;7.258;2023-02-05T10:53:38;8.20;83.80
58447;DHT22;44240;51.840;7.258;2023-02-05T10:56:05;8.20;83.80
58447;DHT22;44240;51.840;7.258;2023-02-05T10:58:51;8.20;83.80
58447;DHT22;44240;51.840;7.258;2023-02-05T11:07:00;8.30;83.20
58447;DHT22;44240;51.840;7.258;2023-02-05T11:09:31;8.30;83.10
58447;DHT22;44240;51.840;7.258;2023-02-05T11:14:34;8.30;83.10
58447;DHT22;44240;51.840;7.258;2023-02-05T11:19:59;8.40;82.70
58447;DHT22;44240;51.840;7.258;2023-02-05T11:22:30;8.40;82.60
58447;DHT22;44240;51.840;7.258;2023-02-05T11:25:18;8.40;82.30
58447;DHT22;44240;51.840;7.258;2023-02-05T11:27:54;8.50;81.90
58447;DHT22;44240;51.840;7.258;2023-02-05T11:30:27;8.40;82.00
58447;DHT22;44240;51.840;7.258;2023-02-05T11:32:56;8.40;82.10
58447;DHT22;44240;51.840;7.258;2023-02-05T11:35:24;8.40;82.40
58447;DHT22;44240;51.840;7.258;2023-02-05T11:38:06;8.40;82.10
58447;DHT22;44240;51.840;7.258;2023-02-05T11:40:33;8.50;82.10
58447;DHT22;44240;51.840;7.258;2023-02-05T11:43:06;8.50;82.00
58447;DHT22;44240;51.840;7.258;2023-02-05T11:45:37;8.60;81.90
58447;DHT22;44240;51.840;7.258;2023-02-05T11:48:19;8.60;82.00
58447;DHT22;44240;51.840;7.258;2023-02-05T11:50:46;8.60;82.00
58447;DHT22;44240;51.840;7.258;2023-02-05T11:53:16;8.60;82.00
58447;DHT22;44240;51.840;7.258;2023-02-05T11:55:44;8.70;82.00
58447;DHT22;44240;51.840;7.258;2023-02-05T11:58:28;8.70;81.90
58447;DHT22;44240;51.840;7.258;2023-02-05T12:01:00;8.70;82.00
58447;DHT22;44240;51.840;7.258;2023-02-05T12:03:28;8.70;82.20
58447;DHT22;44240;51.840;7.258;2023-02-05T12:06:03;8.70;82.20
58447;DHT22;44240;51.840;7.258;2023-02-05T12:08:49;8.70;82.20
58447;DHT22;44240;51.840;7.258;2023-02-05T12:14:40;8.70;82.20
58447;DHT22;44240;51.840;7.258;2023-02-05T12:17:23;8.70;82.10
58447;DHT22;44240;51.840;7.258;2023-02-05T12:22:43;8.60;82.20
58447;DHT22;44240;51.840;7.258;2023-02-05T12:25:13;8.50;82.00
58447;DHT22;44240;51.840;7.258;2023-02-05T12:31:10;8.50;81.60
58447;DHT22;44240;51.840;7.258;2023-02-05T12:33:52;8.40;81.50
58447;DHT22;44240;51.840;7.258;2023-02-05T12:36:44;8.40;81.60
58447;DHT22;44240;51.840;7.258;2023-02-05T12:39:28;8.40;81.40
58447;DHT22;44240;51.840;7.258;2023-02-05T12:45:12;8.40;81.20
58447;DHT22;44240;51.840;7.258;2023-02-05T12:47:45;8.30;81.20
58447;DHT22;44240;51.840;7.258;2023-02-05T12:50:33;8.40;81.30
58447;DHT22;44240;51.840;7.258;2023-02-05T12:55:58;8.40;80.80
58447;DHT22;44240;51.840;7.258;2023-02-05T12:58:34;8.40;80.70
58447;DHT22;44240;51.840;7.258;2023-02-05T13:01:07;8.40;80.60
58447;DHT22;44240;51.840;7.258;2023-02-05T13:03:42;8.40;80.50
58447;DHT22;44240;51.840;7.258;2023-02-05T13:06:21;8.40;80.50
58447;DHT22;44240;51.840;7.258;2023-02-05T13:08:54;8.40;80.10
58447;DHT22;44240;51.840;7.258;2023-02-05T13:11:32;8.40;79.60
58447;DHT22;44240;51.840;7.258;2023-02-05T13:16:53;8.40;80.00
58447;DHT22;44240;51.840;7.258;2023-02-05T13:19:37;8.50;79.80
58447;DHT22;44240;51.840;7.258;2023-02-05T13:22:21;8.50;79.40
58447;DHT22;44240;51.840;7.258;2023-02-05T13:25:23;8.50;79.50
58447;DHT22;44240;51.840;7.258;2023-02-05T13:31:00;8.50;79.40
58447;DHT22;44240;51.840;7.258;2023-02-05T13:33:27;8.50;79.30
58447;DHT22;44240;51.840;7.258;2023-02-05T13:41:33;8.50;79.30
58447;DHT22;44240;51.840;7.258;2023-02-05T13:44:53;8.60;79.30
58447;DHT22;44240;51.840;7.258;2023-02-05T13:49:56;8.70;79.10
58447;DHT22;44240;51.840;7.258;2023-02-05T13:52:47;8.80;78.80
58447;DHT22;44240;51.840;7.258;2023-02-05T13:55:42;8.80;78.60
58447;DHT22;44240;51.840;7.258;2023-02-05T13:58:24;8.80;77.90
58447;DHT22;44240;51.840;7.258;2023-02-05T14:01:02;8.70;78.10
58447;DHT22;44240;51.840;7.258;2023-02-05T14:03:36;8.80;78.00
58447;DHT22;44240;51.840;7.258;2023-02-05T14:06:26;8.90;77.20
58447;DHT22;44240;51.840;7.258;2023-02-05T14:08:58;9.10;76.20
58447;DHT22;44240;51.840;7.258;2023-02-05T14:11:25;9.10;75.90
58447;DHT22;44240;51.840;7.258;2023-02-05T14:16:41;9.40;74.80
58447;DHT22;44240;51.840;7.258;2023-02-05T14:19:15;9.50;74.50
58447;DHT22;44240;51.840;7.258;2023-02-05T14:21:48;9.60;74.30
58447;DHT22;44240;51.840;7.258;2023-02-05T14:24:40;9.50;74.10
58447;DHT22;44240;51.840;7.258;2023-02-05T14:29:50;9.40;74.50
58447;DHT22;44240;51.840;7.258;2023-02-05T14:34:59;9.30;74.00
58447;DHT22;44240;51.840;7.258;2023-02-05T14:37:40;9.20;74.10
58447;DHT22;44240;51.840;7.258;2023-02-05T14:40:31;9.20;74.30
58447;DHT22;44240;51.840;7.258;2023-02-05T14:43:11;9.30;74.60
58447;DHT22;44240;51.840;7.258;2023-02-05T14:45:46;9.30;74.50
58447;DHT22;44240;51.840;7.258;2023-02-05T14:48:28;9.30;74.30
58447;DHT22;44240;51.840;7.258;2023-02-05T14:51:02;9.30;74.20
58447;DHT22;44240;51.840;7.258;2023-02-05T14:53:29;9.30;74.10
58447;DHT22;44240;51.840;7.258;2023-02-05T14:55:55;9.20;73.40
58447;DHT22;44240;51.840;7.258;2023-02-05T14:58:32;9.20;73.00
58447;DHT22;44240;51.840;7.258;2023-02-05T15:03:57;9.30;73.20
58447;DHT22;44240;51.840;7.258;2023-02-05T15:06:26;9.20;73.20
58447;DHT22;44240;51.840;7.258;2023-02-05T15:09:03;9.30;72.70
58447;DHT22;44240;51.840;7.258;2023-02-05T15:19:32;9.20;72.70
58447;DHT22;44240;51.840;7.258;2023-02-05T15:21:59;9.20;73.30
58447;DHT22;44240;51.840;7.258;2023-02-05T15:24:27;9.10;72.20
58447;DHT22;44240;51.840;7.258;2023-02-05T15:27:12;9.10;72.00
58447;DHT22;44240;51.840;7.258;2023-02-05T15:29:45;9.10;72.30
58447;DHT22;44240;51.840;7.258;2023-02-05T15:32:34;9.00;72.20
58447;DHT22;44240;51.840;7.258;2023-02-05T15:35:12;9.10;72.30
58447;DHT22;44240;51.840;7.258;2023-02-05T15:37:47;9.10;72.10
58447;DHT22;44240;51.840;7.258;2023-02-05T15:40:26;9.10;72.40
58447;DHT22;44240;51.840;7.258;2023-02-05T15:42:57;9.10;72.30
58447;DHT22;44240;51.840;7.258;2023-02-05T15:45:25;9.10;72.20
58447;DHT22;44240;51.840;7.258;2023-02-05T15:48:11;9.10;72.00
58447;DHT22;44240;51.840;7.258;2023-02-05T15:51:01;9.20;72.00
58447;DHT22;44240;51.840;7.258;2023-02-05T15:53:34;9.20;71.90
58447;DHT22;44240;51.840;7.258;2023-02-05T15:58:51;9.20;72.10
58447;DHT22;44240;51.840;7.258;2023-02-05T16:03:52;9.20;72.00
58447;DHT22;44240;51.840;7.258;2023-02-05T16:06:23;9.20;71.80
58447;DHT22;44240;51.840;7.258;2023-02-05T16:08:50;9.20;71.70
58447;DHT22;44240;51.840;7.258;2023-02-05T16:11:30;9.20;71.80
58447;DHT22;44240;51.840;7.258;2023-02-05T16:14:10;9.30;71.80
58447;DHT22;44240;51.840;7.258;2023-02-05T16:16:41;9.20;71.70
58447;DHT22;44240;51.840;7.258;2023-02-05T16:19:14;9.20;71.40
58447;DHT22;44240;51.840;7.258;2023-02-05T16:21:47;9.20;71.10
58447;DHT22;44240;51.840;7.258;2023-02-05T16:24:23;9.10;71.00
58447;DHT22;44240;51.840;7.258;2023-02-05T16:27:12;9.10;71.10
58447;DHT22;44240;51.840;7.258;2023-02-05T16:29:43;9.10;71.30
58447;DHT22;44240;51.840;7.258;2023-02-05T16:32:30;9.10;71.00
58447;DHT22;44240;51.840;7.258;2023-02-05T16:34:59;9.10;71.00
58447;DHT22;44240;51.840;7.258;2023-02-05T16:37:29;9.00;71.30
58447;DHT22;44240;51.840;7.258;2023-02-05T16:39:56;8.90;70.20
58447;DHT22;44240;51.840;7.258;2023-02-05T16:42:28;8.90;70.30
58447;DHT22;44240;51.840;7.258;2023-02-05T16:45:22;8.80;70.20
58447;DHT22;44240;51.840;7.258;2023-02-05T16:48:23;8.90;70.30
58447;DHT22;44240;51.840;7.258;2023-02-05T16:50:50;8.80;70.20
58447;DHT22;44240;51.840;7.258;2023-02-05T16:53:18;8.80;70.40
58447;DHT22;44240;51.840;7.258;2023-02-05T16:55:44;8.80;70.00
58447;DHT22;44240;51.840;7.258;2023-02-05T16:58:21;8.80;70.00
58447;DHT22;44240;51.840;7.258;2023-02-05T17:00:57;8.70;69.70
58447;DHT22;44240;51.840;7.258;2023-02-05T17:03:24;8.70;70.00
58447;DHT22;44240;51.840;7.258;2023-02-05T17:05:57;8.70;69.90
58447;DHT22;44240;51.840;7.258;2023-02-05T17:08:32;8.70;69.50
58447;DHT22;44240;51.840;7.258;2023-02-05T17:11:02;8.70;69.50
58447;DHT22;44240;51.840;7.258;2023-02-05T17:13:36;8.60;69.40
58447;DHT22;44240;51.840;7.258;2023-02-05T17:16:24;8.60;69.30
58447;DHT22;44240;51.840;7.258;2023-02-05T17:19:04;8.60;69.30
58447;DHT22;44240;51.840;7.258;2023-02-05T17:21:32;8.70;69.40
58447;DHT22;44240;51.840;7.258;2023-02-05T17:23:59;8.60;69.40
58447;DHT22;44240;51.840;7.258;2023-02-05T17:26:30;8.60;69.60
58447;DHT22;44240;51.840;7.258;2023-02-05T17:28:59;8.60;69.50
58447;DHT22;44240;51.840;7.258;2023-02-05T17:31:25;8.60;69.30
58447;DHT22;44240;51.840;7.258;2023-02-05T17:33:55;8.50;68.90
58447;DHT22;44240;51.840;7.258;2023-02-05T17:36:21;8.50;69.00
58447;DHT22;44240;51.840;7.258;2023-02-05T17:38:47;8.50;69.10
58447;DHT22;44240;51.840;7.258;2023-02-05T17:41:19;8.40;69.00
58447;DHT22;44240;51.840;7.258;2023-02-05T17:44:04;8.40;69.20
58447;DHT22;44240;51.840;7.258;2023-02-05T17:46:31;8.30;69.30
58447;DHT22;44240;51.840;7.258;2023-02-05T17:48:57;8.30;69.30
58447;DHT22;44240;51.840;7.258;2023-02-05T17:51:23;8.30;69.40
58447;DHT22;44240;51.840;7.258;2023-02-05T17:53:49;8.20;69.50
58447;DHT22;44240;51.840;7.258;2023-02-05T17:56:15;8.10;69.40